グアテマラシティ の空港の天気 - METARとTAF

ラ・アウロラ国際空港 ( MGGT / GUA ) - グアテマラ グアテマラシティ
飛行場実況気象(Metar)
観測時間12/16 01:00 CST (12/16 07:00 UTC)
風向・風速北 5m/s
視程8000m
天気現象もや
全天を覆う雲 雲底高度 240m
気温16℃
湿度88%
気圧1025hPa
METARMGGT 160700Z 36010KT 8000 OVC008 16/14 Q1025 A3027 BR
過去の天気等 Google飛行場航空写真 Wunderground天気予報

過去48時間のMETAR

飛行場予報(TAF)
発表時間: 12/15 23:00 CST (12/16 05:00 UTC)
予報対象時間: 16日0時 CST ~ 17日0時 CST
風向・風速北北東 4m/s
視程10km以上
なし
16日10時 CST ~ 16日12時 CST に徐々に
風向・風速南 4m/s
少しの雲 雲底高度 550m
16日14時 CST ~ 16日19時 CST に一時的に
全天の4割程度の塔状積雲 雲底高度 610m
16日21時 CST ~ 16日23時 CST に徐々に
風向・風速北 4m/s
MGGT 160500Z 1606/1706 03008KT CAVOK TX26/1620Z TN13/1612Z
BECMG 1616/1618 18008KT FEW018
TEMPO 1620/1701 SCT020TCU
BECMG 1703/1705 36008KT